Time;durP1;ratioP1;P1;durP2;ratioP2;P2;SDS_P1;SDS_P2;PMS_P1;PMS_P2;Temp;Humidity;BMP_temperature;BMP_pressure;BME280_temperature;BME280_humidity;BME280_pressure;Samples;Min_cycle;Max_cycle;Signal;HPM_P1;HPM_P2
2021/12/28 00:01:11;;;;;;;11.67;4.80;;;-2.70;99.90;;;;;;4975028;28;20166;-70
2021/12/28 00:03:40;;;;;;;24.90;11.13;;;-2.70;99.90;;;;;;4974750;28;20252;-70
2021/12/28 00:06:05;;;;;;;9.23;6.37;;;-2.70;99.90;;;;;;4974800;28;20425;-70
2021/12/28 00:08:31;;;;;;;9.37;7.40;;;-2.70;99.90;;;;;;4974834;28;20431;-70
2021/12/28 00:10:57;;;;;;;8.70;8.03;;;-2.70;99.90;;;;;;4974048;28;20196;-70
2021/12/28 00:13:23;;;;;;;14.77;9.63;;;-2.70;99.90;;;;;;4974378;28;20170;-70
2021/12/28 00:18:20;;;;;;;18.03;10.60;;;-2.70;99.90;;;;;;4963902;28;20980;-69
2021/12/28 00:20:49;;;;;;;8.60;6.70;;;-2.80;99.90;;;;;;4954937;28;20512;-70
2021/12/28 00:23:28;;;;;;;10.23;9.13;;;-2.80;99.90;;;;;;4954947;28;20257;-70
2021/12/28 00:25:54;;;;;;;10.73;8.67;;;-2.80;99.90;;;;;;4955046;28;20429;-74
2021/12/28 00:28:21;;;;;;;24.47;14.33;;;-2.80;99.90;;;;;;4955087;28;20509;-69
2021/12/28 00:30:48;;;;;;;10.87;7.03;;;-2.80;99.90;;;;;;4957096;28;20487;-70
2021/12/28 00:33:16;;;;;;;17.13;6.50;;;-2.80;99.90;;;;;;4974357;28;20413;-71
2021/12/28 00:35:42;;;;;;;8.07;6.73;;;-2.80;99.90;;;;;;4975080;28;20433;-69
2021/12/28 00:38:15;;;;;;;12.90;8.67;;;-2.90;99.90;;;;;;4963536;28;20963;-70
2021/12/28 00:40:41;;;;;;;10.17;9.30;;;-2.90;99.90;;;;;;4954872;28;20206;-70
2021/12/28 00:43:07;;;;;;;15.57;7.70;;;-2.90;99.90;;;;;;4954669;28;20441;-70
2021/12/28 00:45:33;;;;;;;10.57;7.83;;;-2.90;99.90;;;;;;4954671;28;20482;-70
2021/12/28 00:47:58;;;;;;;7.53;6.87;;;-2.90;99.90;;;;;;4954985;28;20213;-70
2021/12/28 00:50:25;;;;;;;9.87;8.83;;;-2.90;99.90;;;;;;4969245;28;20410;-71
2021/12/28 00:52:51;;;;;;;11.87;10.00;;;-2.90;99.90;;;;;;4954859;28;20182;-70
2021/12/28 00:55:18;;;;;;;12.50;9.47;;;-2.90;99.90;;;;;;4954595;28;20406;-70
2021/12/28 00:57:44;;;;;;;11.20;8.90;;;-3.00;99.90;;;;;;4954893;28;20607;-70
2021/12/28 01:00:14;;;;;;;11.33;9.90;;;-3.00;99.90;;;;;;4954378;28;20540;-70
2021/12/28 01:02:39;;;;;;;10.20;6.70;;;-3.00;99.90;;;;;;4954236;29;20169;-70
2021/12/28 01:05:06;;;;;;;17.83;9.10;;;-3.00;99.90;;;;;;4954454;28;20796;-70
2021/12/28 01:07:32;;;;;;;12.33;8.47;;;-3.00;99.90;;;;;;4954511;28;20237;-70
2021/12/28 01:09:58;;;;;;;11.87;7.10;;;-3.00;99.90;;;;;;4954127;28;20473;-70
2021/12/28 01:12:24;;;;;;;6.87;5.33;;;-3.10;99.90;;;;;;4954197;28;20186;-70
2021/12/28 01:14:49;;;;;;;18.63;10.03;;;-3.10;99.90;;;;;;4954543;28;20180;-70
2021/12/28 01:17:15;;;;;;;10.47;8.10;;;-3.10;99.90;;;;;;4954715;28;20524;-70
2021/12/28 01:19:42;;;;;;;14.10;5.87;;;-3.00;99.90;;;;;;4954030;28;20696;-71
2021/12/28 01:22:07;;;;;;;10.87;9.13;;;-3.10;99.90;;;;;;4953317;28;20497;-70
2021/12/28 01:24:33;;;;;;;14.80;8.83;;;-3.10;99.90;;;;;;4953974;28;20497;-70
2021/12/28 01:26:59;;;;;;;8.93;7.47;;;-3.10;99.90;;;;;;4953900;28;20432;-69
2021/12/28 01:29:25;;;;;;;6.07;5.60;;;-3.10;99.90;;;;;;4953988;28;20410;-70
2021/12/28 01:31:51;;;;;;;17.70;8.17;;;-3.10;99.90;;;;;;4953678;28;20594;-69
2021/12/28 01:34:17;;;;;;;14.80;5.63;;;-3.10;99.90;;;;;;4953885;28;20438;-70
2021/12/28 01:36:43;;;;;;;19.47;8.00;;;-3.10;99.90;;;;;;4953473;28;20445;-70
2021/12/28 01:39:09;;;;;;;13.97;8.13;;;-3.10;99.90;;;;;;4957008;28;20536;-70
2021/12/28 01:41:35;;;;;;;17.93;9.33;;;-3.10;99.90;;;;;;4954155;28;20163;-70
2021/12/28 01:44:06;;;;;;;7.43;6.87;;;-3.10;99.90;;;;;;4953711;28;20421;-70
2021/12/28 01:46:33;;;;;;;7.17;6.50;;;-3.20;99.90;;;;;;4953216;28;20521;-70
2021/12/28 01:48:59;;;;;;;11.27;10.20;;;-3.20;99.90;;;;;;4953988;28;20469;-69
2021/12/28 01:51:26;;;;;;;9.80;8.97;;;-3.20;99.90;;;;;;4953563;28;20405;-69
2021/12/28 01:53:55;;;;;;;13.37;12.00;;;-3.20;99.90;;;;;;4960629;28;20173;-69
2021/12/28 01:56:44;;;;;;;26.27;12.23;;;-3.20;99.90;;;;;;4973170;28;20605;-69
2021/12/28 01:59:12;;;;;;;8.23;6.53;;;-3.20;99.90;;;;;;4973014;28;20511;-69
2021/12/28 02:01:38;;;;;;;9.87;6.57;;;-3.20;99.90;;;;;;4972788;28;20904;-69
2021/12/28 02:04:16;;;;;;;12.07;7.65;;;-3.20;99.90;;;;;;4972768;28;20416;-69
2021/12/28 02:06:43;;;;;;;8.47;6.20;;;-3.20;99.90;;;;;;4973049;28;20711;-69
2021/12/28 02:09:08;;;;;;;24.98;8.68;;;-3.30;99.90;;;;;;4968595;28;20473;-69
2021/12/28 02:11:34;;;;;;;10.80;9.70;;;-3.30;99.90;;;;;;4953310;28;20202;-69
2021/12/28 02:14:01;;;;;;;10.27;7.67;;;-3.20;99.90;;;;;;4953315;28;20178;-70
2021/12/28 02:16:26;;;;;;;17.03;11.30;;;-3.20;99.90;;;;;;4953473;28;20191;-70
2021/12/28 02:18:52;;;;;;;21.93;9.23;;;-3.20;99.90;;;;;;4968052;28;20496;-70
2021/12/28 02:21:17;;;;;;;11.00;10.00;;;-3.20;99.90;;;;;;4953417;28;20175;-70
2021/12/28 02:23:43;;;;;;;10.70;8.47;;;-3.20;99.90;;;;;;4953343;28;20573;-70
2021/12/28 02:26:09;;;;;;;13.83;8.20;;;-3.20;99.90;;;;;;4956900;28;20262;-69
2021/12/28 02:28:35;;;;;;;17.90;13.47;;;-3.30;99.90;;;;;;4952292;28;20254;-70
2021/12/28 02:31:02;;;;;;;14.90;10.40;;;-3.30;99.90;;;;;;4953501;28;20410;-69
2021/12/28 02:33:28;;;;;;;13.93;7.60;;;-3.30;99.90;;;;;;4966806;28;20468;-69
2021/12/28 02:35:56;;;;;;;10.47;8.73;;;-3.30;99.90;;;;;;4976487;28;20817;-69
2021/12/28 02:38:22;;;;;;;9.47;8.57;;;-3.30;99.90;;;;;;4977041;28;20311;-69
2021/12/28 02:40:48;;;;;;;13.50;6.70;;;-3.30;99.90;;;;;;4978809;28;20480;-70
2021/12/28 02:43:15;;;;;;;6.67;6.27;;;-3.40;99.90;;;;;;4977126;28;20245;-70
2021/12/28 02:45:49;;;;;;;9.53;7.13;;;-3.40;99.90;;;;;;4979333;28;20427;-69
2021/12/28 02:48:15;;;;;;;9.73;4.63;;;-3.40;99.90;;;;;;4979796;28;20393;-69
2021/12/28 02:50:45;;;;;;;10.47;7.13;;;-3.40;99.90;;;;;;4974305;28;20989;-70
2021/12/28 02:53:11;;;;;;;21.00;11.33;;;-3.50;99.90;;;;;;4976183;28;20420;-70
2021/12/28 02:55:39;;;;;;;28.13;5.83;;;-3.50;99.90;;;;;;4975718;28;20803;-70
2021/12/28 02:58:22;;;;;;;5.30;4.17;;;-3.50;99.90;;;;;;4976182;28;20558;-70
2021/12/28 03:00:56;;;;;;;16.53;8.20;;;-3.50;99.90;;;;;;4975765;28;20515;-70
2021/12/28 03:03:25;;;;;;;27.70;11.07;;;-3.50;99.90;;;;;;4975530;28;20409;-70
2021/12/28 03:05:52;;;;;;;10.00;4.97;;;-3.60;99.90;;;;;;4975424;28;20420;-70
2021/12/28 03:08:21;;;;;;;17.27;7.40;;;-3.50;99.90;;;;;;4975498;28;20939;-70
2021/12/28 03:10:48;;;;;;;14.70;8.80;;;-3.50;99.90;;;;;;4975681;28;20424;-69
2021/12/28 03:13:18;;;;;;;29.27;7.55;;;-3.50;99.90;;;;;;4976137;28;20587;-69
2021/12/28 03:15:44;;;;;;;10.03;9.07;;;-3.50;99.90;;;;;;4990249;28;20292;-69
2021/12/28 03:18:09;;;;;;;8.53;7.47;;;-3.50;99.90;;;;;;4975334;28;20504;-70
2021/12/28 03:20:35;;;;;;;13.73;10.07;;;-3.50;99.90;;;;;;4975400;28;20193;-69
2021/12/28 03:23:01;;;;;;;17.27;6.63;;;-3.50;99.90;;;;;;4975244;28;20185;-69
2021/12/28 03:25:26;;;;;;;8.97;8.17;;;-3.50;99.90;;;;;;4975300;28;20481;-69
2021/12/28 03:27:52;;;;;;;7.70;7.07;;;-3.50;99.90;;;;;;4975436;28;20633;-69
2021/12/28 03:30:17;;;;;;;11.17;9.13;;;-3.50;99.90;;;;;;4975147;28;20217;-70
2021/12/28 03:32:45;;;;;;;9.47;8.70;;;-3.50;99.90;;;;;;4975096;28;20173;-69
2021/12/28 03:35:13;;;;;;;13.77;10.20;;;-3.40;99.90;;;;;;4975333;28;20607;-70
2021/12/28 03:37:39;;;;;;;10.30;9.30;;;-3.40;99.90;;;;;;4974938;28;20213;-70
2021/12/28 03:40:09;;;;;;;11.03;6.17;;;-3.40;99.90;;;;;;4975270;28;21022;-71
2021/12/28 03:42:35;;;;;;;7.20;5.63;;;-3.40;99.90;;;;;;4974880;28;20459;-70
2021/12/28 03:45:01;;;;;;;9.37;8.37;;;-3.40;99.90;;;;;;4974088;28;20405;-69
2021/12/28 03:47:26;;;;;;;18.80;7.90;;;-3.40;99.90;;;;;;4974737;28;20468;-69
2021/12/28 03:49:52;;;;;;;13.13;7.80;;;-3.40;99.90;;;;;;4975074;28;20178;-69
2021/12/28 03:52:17;;;;;;;26.27;11.40;;;-3.40;99.90;;;;;;4973649;28;20177;-70
2021/12/28 03:54:43;;;;;;;9.57;6.07;;;-3.40;99.90;;;;;;4974696;28;20190;-70
2021/12/28 03:57:09;;;;;;;9.73;7.03;;;-3.40;99.90;;;;;;4974943;28;20205;-70
2021/12/28 03:59:34;;;;;;;13.57;11.13;;;-3.40;99.90;;;;;;4974476;28;20197;-70
2021/12/28 04:02:00;;;;;;;11.17;8.13;;;-3.40;99.90;;;;;;4974672;28;20170;-70
2021/12/28 04:04:25;;;;;;;16.37;7.70;;;-3.40;99.90;;;;;;4974632;28;20277;-69
2021/12/28 04:06:51;;;;;;;18.17;12.97;;;-3.40;99.90;;;;;;4969447;28;20197;-69
2021/12/28 04:09:56;;;;;;;10.87;8.23;;;-3.40;99.90;;;;;;4974643;28;20248;-70
2021/12/28 04:12:11;;;;;;;8.23;7.33;;;-3.40;99.90;;;;;;4975458;28;20174;-70
2021/12/28 04:14:36;;;;;;;10.63;9.70;;;-3.40;99.90;;;;;;4975578;28;20445;-70
2021/12/28 04:17:02;;;;;;;15.33;10.10;;;-3.40;99.90;;;;;;4978918;28;20212;-70
2021/12/28 04:19:27;;;;;;;22.27;10.50;;;-3.40;99.90;;;;;;4978572;28;20609;-70
2021/12/28 04:21:53;;;;;;;11.03;8.47;;;-3.40;99.90;;;;;;4975232;28;20173;-70
2021/12/28 04:24:18;;;;;;;26.83;7.90;;;-3.40;99.90;;;;;;4974473;28;20173;-70
2021/12/28 04:26:44;;;;;;;14.43;9.10;;;-3.40;99.90;;;;;;4974319;28;20221;-70
2021/12/28 04:29:09;;;;;;;24.60;8.80;;;-3.40;99.90;;;;;;4974294;28;20169;-70
2021/12/28 04:31:35;;;;;;;23.07;11.40;;;-3.40;99.90;;;;;;4974216;28;20173;-70
2021/12/28 04:34:01;;;;;;;16.23;9.10;;;-3.30;99.90;;;;;;4974385;28;20178;-70
2021/12/28 04:36:30;;;;;;;10.27;9.33;;;-3.30;99.90;;;;;;4974010;28;20208;-70
2021/12/28 04:38:55;;;;;;;17.35;7.85;;;-3.30;99.90;;;;;;4969207;28;20940;-71
2021/12/28 04:41:21;;;;;;;17.70;10.50;;;-3.30;99.90;;;;;;4954802;28;20185;-69
2021/12/28 04:43:48;;;;;;;13.30;7.23;;;-3.30;99.90;;;;;;4969468;28;20265;-69
2021/12/28 04:46:13;;;;;;;12.43;7.00;;;-3.30;99.90;;;;;;4954697;28;20214;-70
2021/12/28 04:48:39;;;;;;;21.80;9.93;;;-3.20;99.90;;;;;;4954796;28;20409;-69
2021/12/28 04:51:04;;;;;;;8.53;7.73;;;-3.20;99.90;;;;;;4954682;28;20175;-70
2021/12/28 04:53:30;;;;;;;10.70;8.00;;;-3.20;99.90;;;;;;4954466;28;20178;-69
2021/12/28 04:55:56;;;;;;;9.23;7.20;;;-3.20;99.90;;;;;;4954605;28;20209;-69
2021/12/28 04:58:22;;;;;;;9.80;8.33;;;-3.10;99.90;;;;;;4954636;28;20418;-70
2021/12/28 05:00:49;;;;;;;16.80;12.10;;;-3.20;99.90;;;;;;4954564;28;20194;-70
2021/12/28 05:03:16;;;;;;;22.03;10.53;;;-3.20;99.90;;;;;;4954335;28;20170;-70
2021/12/28 05:05:45;;;;;;;14.70;10.60;;;-3.20;99.90;;;;;;4954360;28;20469;-69
2021/12/28 05:08:12;;;;;;;16.17;10.50;;;-3.20;99.90;;;;;;4969546;28;20957;-70
2021/12/28 05:10:40;;;;;;;10.77;7.87;;;-3.10;99.90;;;;;;4954362;28;20753;-70
2021/12/28 05:13:06;;;;;;;10.90;10.00;;;-3.20;99.90;;;;;;4954920;28;20432;-70
2021/12/28 05:15:31;;;;;;;11.10;7.03;;;-3.10;99.90;;;;;;4954143;28;20258;-70
2021/12/28 05:17:57;;;;;;;19.77;8.90;;;-3.10;99.90;;;;;;4954348;28;20824;-70
2021/12/28 05:20:23;;;;;;;23.57;10.50;;;-3.10;99.90;;;;;;4954225;28;20634;-69
2021/12/28 05:22:48;;;;;;;12.13;7.60;;;-3.10;99.90;;;;;;4953019;29;20209;-69
2021/12/28 05:25:14;;;;;;;10.87;8.83;;;-3.10;99.90;;;;;;4954249;28;20178;-69
2021/12/28 05:27:39;;;;;;;24.07;8.60;;;-3.00;99.90;;;;;;4954086;28;20321;-69
2021/12/28 05:30:07;;;;;;;16.10;11.07;;;-3.00;99.90;;;;;;4953796;28;20709;-69
2021/12/28 05:32:32;;;;;;;21.87;9.30;;;-2.90;99.90;;;;;;4953936;28;20335;-69
2021/12/28 05:34:58;;;;;;;11.33;7.97;;;-2.90;99.90;;;;;;4953720;28;20532;-70
2021/12/28 05:37:24;;;;;;;5.93;5.27;;;-2.90;99.90;;;;;;4953667;28;20264;-70
2021/12/28 05:39:49;;;;;;;10.43;5.80;;;-2.90;99.90;;;;;;4953642;28;20304;-69
2021/12/28 05:42:15;;;;;;;12.53;9.03;;;-2.90;99.90;;;;;;4953994;28;20269;-69
2021/12/28 05:44:40;;;;;;;14.77;10.77;;;-2.80;99.90;;;;;;4953741;28;20174;-70
2021/12/28 05:47:06;;;;;;;21.07;10.97;;;-2.80;99.90;;;;;;4952492;28;20190;-70
2021/12/28 05:49:32;;;;;;;31.70;9.20;;;-2.80;99.90;;;;;;4953845;28;20769;-69
2021/12/28 05:51:57;;;;;;;31.70;11.53;;;-2.80;99.90;;;;;;4953870;28;20280;-70
2021/12/28 05:54:23;;;;;;;26.07;12.83;;;-2.80;99.90;;;;;;4953977;28;20178;-69
2021/12/28 05:56:48;;;;;;;18.53;7.23;;;-2.70;99.90;;;;;;4953712;28;20193;-70
2021/12/28 05:59:14;;;;;;;10.90;8.27;;;-2.80;99.90;;;;;;4953948;28;20202;-70
2021/12/28 06:01:40;;;;;;;9.93;7.73;;;-2.70;99.90;;;;;;4953619;28;20249;-69
2021/12/28 06:04:05;;;;;;;15.60;8.63;;;-2.80;99.90;;;;;;4952644;28;20174;-69
2021/12/28 06:06:31;;;;;;;12.90;9.37;;;-2.60;99.90;;;;;;4953275;28;20237;-69
2021/12/28 06:08:56;;;;;;;15.20;9.30;;;-2.70;99.90;;;;;;4954926;28;20171;-70
2021/12/28 06:11:22;;;;;;;14.53;11.30;;;-2.60;99.90;;;;;;4957452;28;20178;-70
2021/12/28 06:13:47;;;;;;;12.87;8.03;;;-2.60;99.90;;;;;;4957701;28;20233;-70
2021/12/28 06:16:16;;;;;;;13.47;8.80;;;-2.60;99.90;;;;;;4957189;28;20566;-69
2021/12/28 06:18:41;;;;;;;9.40;7.97;;;-2.70;99.90;;;;;;4957526;28;20188;-69
2021/12/28 06:21:07;;;;;;;18.23;9.50;;;-2.60;99.90;;;;;;4957155;28;20968;-69
2021/12/28 06:23:33;;;;;;;21.63;7.00;;;-2.60;99.90;;;;;;4955973;28;20221;-70
2021/12/28 06:25:59;;;;;;;16.20;9.60;;;-2.60;99.90;;;;;;4957148;28;20194;-69
2021/12/28 06:28:25;;;;;;;7.27;6.67;;;-2.60;99.90;;;;;;4957625;28;20410;-69
2021/12/28 06:30:53;;;;;;;13.57;9.40;;;-2.60;99.90;;;;;;4957474;28;20441;-70
2021/12/28 06:33:20;;;;;;;11.93;8.23;;;-2.60;99.90;;;;;;4957174;28;20167;-70
2021/12/28 06:35:46;;;;;;;12.43;11.10;;;-2.60;99.90;;;;;;4956754;28;20460;-69
2021/12/28 06:38:11;;;;;;;15.77;9.53;;;-2.60;99.90;;;;;;4957356;28;20421;-70
2021/12/28 06:40:37;;;;;;;13.43;12.10;;;-2.60;99.90;;;;;;4967468;28;21001;-70
2021/12/28 06:43:02;;;;;;;9.63;8.50;;;-2.50;99.90;;;;;;4991212;28;20170;-70
2021/12/28 06:45:28;;;;;;;16.93;9.70;;;-2.50;99.90;;;;;;4976181;28;20170;-70
2021/12/28 06:47:53;;;;;;;13.77;8.80;;;-2.50;99.90;;;;;;4976464;28;20193;-70
2021/12/28 06:50:19;;;;;;;11.10;8.50;;;-2.50;99.90;;;;;;4976201;28;20547;-70
2021/12/28 06:52:44;;;;;;;12.43;9.70;;;-2.40;99.90;;;;;;4976002;28;20195;-71
2021/12/28 06:55:11;;;;;;;16.63;11.60;;;-2.30;99.90;;;;;;4977756;28;20553;-70
2021/12/28 06:57:37;;;;;;;19.50;11.50;;;-2.40;99.90;;;;;;4976496;28;20553;-70
2021/12/28 07:00:06;;;;;;;13.87;7.80;;;-2.40;99.90;;;;;;4991097;28;20471;-71
2021/12/28 07:02:32;;;;;;;11.00;8.50;;;-2.30;99.90;;;;;;4975987;28;20401;-71
2021/12/28 07:04:57;;;;;;;15.83;11.30;;;-2.30;99.90;;;;;;4975582;28;20416;-70
2021/12/28 07:07:23;;;;;;;11.03;10.10;;;-2.30;99.90;;;;;;4975804;28;20243;-70
2021/12/28 07:09:48;;;;;;;18.20;6.70;;;-2.30;99.90;;;;;;4975675;28;20174;-71
2021/12/28 07:12:14;;;;;;;16.63;8.30;;;-2.30;99.90;;;;;;4975707;28;20177;-71
2021/12/28 07:14:39;;;;;;;11.87;10.50;;;-2.30;99.90;;;;;;4990399;28;20174;-71
2021/12/28 07:17:05;;;;;;;18.27;11.80;;;-2.30;99.90;;;;;;4975575;28;20567;-70
2021/12/28 07:19:30;;;;;;;15.47;7.17;;;-2.30;99.90;;;;;;4974869;28;20189;-70
2021/12/28 07:21:57;;;;;;;11.87;10.37;;;-2.30;99.90;;;;;;4974620;28;20178;-70
2021/12/28 07:24:22;;;;;;;33.40;9.43;;;-2.30;99.90;;;;;;4975793;28;20648;-70
2021/12/28 07:26:48;;;;;;;12.00;10.43;;;-2.30;99.90;;;;;;4975600;28;20456;-70
2021/12/28 07:29:14;;;;;;;14.80;10.00;;;-2.30;99.90;;;;;;4974192;28;20675;-70
2021/12/28 07:31:40;;;;;;;18.73;9.40;;;-2.30;99.90;;;;;;4975301;28;20173;-70
2021/12/28 07:34:06;;;;;;;15.57;8.70;;;-2.30;99.90;;;;;;4975118;28;20440;-70
2021/12/28 07:36:32;;;;;;;15.73;9.90;;;-2.30;99.90;;;;;;4975258;28;20515;-71
2021/12/28 07:38:58;;;;;;;14.80;12.93;;;-2.30;99.90;;;;;;4975524;28;20551;-71
2021/12/28 07:41:24;;;;;;;13.90;10.63;;;-2.20;99.90;;;;;;4975271;28;20413;-71
2021/12/28 07:43:49;;;;;;;22.80;8.20;;;-2.20;99.90;;;;;;4975243;28;20170;-71
2021/12/28 07:46:15;;;;;;;27.40;11.10;;;-2.20;99.90;;;;;;4974961;28;20192;-70
2021/12/28 07:48:41;;;;;;;14.57;13.10;;;-2.20;99.90;;;;;;4975361;28;20539;-70
2021/12/28 07:51:07;;;;;;;21.30;11.67;;;-2.20;99.90;;;;;;4975799;28;20170;-71
2021/12/28 07:53:33;;;;;;;10.57;7.03;;;-2.20;99.90;;;;;;4976196;28;20416;-71
2021/12/28 07:55:59;;;;;;;19.87;11.53;;;-2.10;99.90;;;;;;4979127;28;20433;-71
2021/12/28 07:58:25;;;;;;;17.80;9.27;;;-2.10;99.90;;;;;;4976918;28;20413;-71
2021/12/28 08:00:51;;;;;;;23.93;9.93;;;-2.20;99.90;;;;;;4971876;28;20204;-70
2021/12/28 08:03:18;;;;;;;20.47;7.87;;;-2.20;99.90;;;;;;4964931;28;20542;-70
2021/12/28 08:05:44;;;;;;;15.10;9.23;;;-2.10;99.90;;;;;;4974391;28;20977;-70
2021/12/28 08:08:10;;;;;;;20.73;12.10;;;-2.20;99.90;;;;;;4958032;28;20418;-71
2021/12/28 08:10:35;;;;;;;10.07;7.50;;;-2.10;99.90;;;;;;4955565;28;20469;-70
2021/12/28 08:13:01;;;;;;;27.50;9.67;;;-2.20;99.90;;;;;;4955037;28;20178;-71
2021/12/28 08:15:27;;;;;;;12.20;8.53;;;-2.20;99.90;;;;;;4954965;28;20249;-70
2021/12/28 08:17:52;;;;;;;11.87;8.10;;;-2.10;99.90;;;;;;4954587;28;20211;-70
2021/12/28 08:20:18;;;;;;;16.93;10.70;;;-2.00;99.90;;;;;;4970723;28;20639;-70
2021/12/28 08:22:48;;;;;;;17.13;8.40;;;-2.00;99.90;;;;;;4970118;28;20202;-70
2021/12/28 08:25:17;;;;;;;17.07;7.37;;;-2.00;99.90;;;;;;4985333;28;20421;-70
2021/12/28 08:27:43;;;;;;;13.03;9.20;;;-1.90;99.90;;;;;;4973857;28;20939;-70
2021/12/28 08:30:10;;;;;;;20.20;12.40;;;-1.90;99.90;;;;;;4969166;28;20902;-71
2021/12/28 08:32:36;;;;;;;13.73;9.27;;;-1.90;99.90;;;;;;4973620;28;20405;-70
2021/12/28 08:35:04;;;;;;;11.53;9.13;;;-1.90;99.90;;;;;;4974008;28;20432;-70
2021/12/28 08:37:29;;;;;;;11.97;9.90;;;-1.80;99.90;;;;;;4973919;28;20510;-71
2021/12/28 08:39:55;;;;;;;25.80;13.30;;;-1.80;99.90;;;;;;4968636;28;20930;-69
2021/12/28 08:42:21;;;;;;;11.67;8.43;;;-1.80;99.90;;;;;;4972553;28;20197;-70
2021/12/28 08:44:47;;;;;;;17.57;11.70;;;-1.70;99.90;;;;;;4973654;28;20166;-70
2021/12/28 08:47:13;;;;;;;12.27;9.60;;;-1.70;99.90;;;;;;4973793;28;20774;-71
2021/12/28 08:49:39;;;;;;;12.40;9.53;;;-1.60;99.90;;;;;;4974363;28;20409;-72
2021/12/28 08:52:05;;;;;;;23.73;10.67;;;-1.50;99.90;;;;;;4973954;28;20173;-71
2021/12/28 08:54:30;;;;;;;9.80;6.87;;;-1.50;99.90;;;;;;4973792;28;20189;-74
2021/12/28 08:56:56;;;;;;;15.13;11.67;;;-1.40;99.90;;;;;;4971678;28;20978;-71
2021/12/28 08:59:22;;;;;;;16.60;10.10;;;-1.40;99.90;;;;;;4973942;28;20284;-73
2021/12/28 09:01:49;;;;;;;16.67;7.80;;;-1.20;99.90;;;;;;4974554;28;20224;-72
2021/12/28 09:04:15;;;;;;;18.17;11.33;;;-1.20;99.90;;;;;;4973200;28;20815;-70
2021/12/28 09:06:40;;;;;;;11.17;10.03;;;-1.30;99.90;;;;;;4973831;28;20500;-71
2021/12/28 09:09:06;;;;;;;14.67;9.87;;;-1.30;99.90;;;;;;4972647;28;20453;-71
2021/12/28 09:11:32;;;;;;;20.67;12.50;;;-1.30;99.90;;;;;;4973812;28;20166;-71
2021/12/28 09:13:57;;;;;;;10.40;8.10;;;-1.30;99.90;;;;;;4973099;28;20668;-72
2021/12/28 09:16:23;;;;;;;15.77;9.43;;;-1.30;99.90;;;;;;4973713;28;20197;-70
2021/12/28 09:18:49;;;;;;;13.93;11.23;;;-1.20;99.90;;;;;;4973147;28;20648;-71
2021/12/28 09:21:15;;;;;;;14.43;12.07;;;-1.20;99.90;;;;;;4973279;28;20209;-71
2021/12/28 09:23:40;;;;;;;20.43;10.60;;;-1.20;99.90;;;;;;4969524;28;20468;-70
2021/12/28 09:26:06;;;;;;;38.33;13.20;;;-1.20;99.90;;;;;;4970342;28;20190;-71
2021/12/28 09:28:32;;;;;;;17.40;8.83;;;-1.10;99.90;;;;;;4973235;28;20166;-72
2021/12/28 09:30:58;;;;;;;12.00;10.00;;;-1.00;99.90;;;;;;4986013;28;20185;-71
2021/12/28 09:33:24;;;;;;;16.43;9.20;;;-1.00;99.90;;;;;;4992523;28;20172;-71
2021/12/28 09:35:51;;;;;;;17.40;9.17;;;-1.00;99.90;;;;;;4992433;28;20458;-71
2021/12/28 09:38:19;;;;;;;17.33;10.50;;;-1.00;99.90;;;;;;4992624;28;20491;-71
2021/12/28 09:40:46;;;;;;;13.00;9.70;;;-1.00;99.90;;;;;;4972799;28;20465;-70
2021/12/28 09:43:13;;;;;;;14.43;8.97;;;-0.90;99.90;;;;;;4971982;28;20511;-70
2021/12/28 09:45:38;;;;;;;21.37;8.50;;;-0.90;99.90;;;;;;4972570;28;20468;-71
2021/12/28 09:48:04;;;;;;;14.53;7.60;;;-0.90;99.90;;;;;;4972939;28;20409;-70
2021/12/28 09:50:31;;;;;;;21.50;12.07;;;-0.90;99.90;;;;;;4972830;28;20243;-70
2021/12/28 09:52:56;;;;;;;27.47;13.77;;;-1.00;99.90;;;;;;4972955;28;20417;-70
2021/12/28 09:55:24;;;;;;;27.67;11.17;;;-0.90;99.90;;;;;;4972744;28;20412;-70
2021/12/28 09:57:50;;;;;;;27.27;15.37;;;-1.00;99.90;;;;;;4972663;28;20197;-71
2021/12/28 10:00:19;;;;;;;16.57;7.93;;;-0.90;99.90;;;;;;4972096;28;20465;-71
2021/12/28 10:02:44;;;;;;;22.40;12.53;;;-1.00;99.90;;;;;;4972701;28;20436;-71
2021/12/28 10:05:17;;;;;;;19.80;8.57;;;-0.90;99.90;;;;;;4972656;28;20421;-70
2021/12/28 10:07:46;;;;;;;20.37;10.60;;;-0.90;99.90;;;;;;4973011;28;20590;-70
2021/12/28 10:10:12;;;;;;;12.47;8.77;;;-0.80;99.90;;;;;;4969295;28;20854;-70
2021/12/28 10:12:41;;;;;;;15.73;11.50;;;-0.90;99.90;;;;;;4972771;28;20424;-70
2021/12/28 10:15:09;;;;;;;18.30;10.63;;;-0.80;99.90;;;;;;4972742;28;20526;-74
2021/12/28 10:17:36;;;;;;;26.10;9.27;;;-0.70;99.90;;;;;;4972885;28;20511;-74
2021/12/28 10:20:15;;;;;;;43.60;20.80;;;-0.50;99.90;;;;;;4972739;28;20505;-72
2021/12/28 10:22:47;;;;;;;22.13;6.83;;;0.00;99.90;;;;;;4973518;28;20424;-74
2021/12/28 10:25:38;;;;;;;12.23;8.13;;;-0.30;99.90;;;;;;4976307;28;20412;-74
2021/12/28 10:28:13;;;;;;;11.13;7.50;;;-0.40;99.90;;;;;;4972180;28;20459;-71
2021/12/28 10:30:51;;;;;;;13.33;8.90;;;-0.50;99.90;;;;;;4972266;28;20790;-70
2021/12/28 10:33:19;;;;;;;19.87;10.87;;;-0.40;99.90;;;;;;4972466;28;20927;-71
2021/12/28 10:35:47;;;;;;;15.70;8.37;;;-0.40;99.90;;;;;;4972853;28;20511;-71
2021/12/28 10:38:19;;;;;;;17.80;12.47;;;-0.40;99.90;;;;;;4972781;28;20415;-71
2021/12/28 10:41:15;;;;;;;17.53;11.80;;;-0.40;99.90;;;;;;4972354;28;20979;-71
2021/12/28 10:43:45;;;;;;;20.87;9.87;;;-0.40;99.90;;;;;;4975756;28;20456;-71
2021/12/28 10:46:14;;;;;;;20.97;9.03;;;-0.30;99.90;;;;;;4972401;28;20428;-71
2021/12/28 10:48:58;;;;;;;16.83;11.00;;;-0.10;99.90;;;;;;4972740;28;20507;-70
2021/12/28 10:51:31;;;;;;;18.43;10.97;;;0.00;99.90;;;;;;4972822;28;20416;-70
2021/12/28 10:56:37;;;;;;;16.47;12.27;;;0.00;99.90;;;;;;4976887;28;20425;-70
2021/12/28 10:59:05;;;;;;;19.60;10.40;;;0.10;99.90;;;;;;4976348;28;20491;-72
2021/12/28 11:01:34;;;;;;;25.73;12.37;;;0.20;99.90;;;;;;4972065;28;20471;-71
2021/12/28 11:04:04;;;;;;;15.23;13.60;;;0.30;99.90;;;;;;4976206;28;20417;-71
2021/12/28 11:06:32;;;;;;;17.20;8.17;;;0.30;99.90;;;;;;4975730;28;20429;-71
2021/12/28 11:09:03;;;;;;;22.50;14.27;;;0.30;99.90;;;;;;4975919;28;20469;-72
2021/12/28 11:11:29;;;;;;;20.37;10.17;;;0.30;99.90;;;;;;4976099;28;20428;-71
2021/12/28 11:13:59;;;;;;;14.60;11.23;;;0.30;99.90;;;;;;4976308;28;20405;-70
2021/12/28 11:16:26;;;;;;;18.57;9.83;;;0.30;99.90;;;;;;4975806;28;20448;-70
2021/12/28 11:18:57;;;;;;;13.10;11.47;;;0.40;99.90;;;;;;4975792;28;20427;-71
2021/12/28 11:21:35;;;;;;;16.27;10.37;;;0.40;99.90;;;;;;4976006;28;20492;-70
2021/12/28 11:24:03;;;;;;;23.73;11.73;;;0.40;99.90;;;;;;4975671;28;20416;-71
2021/12/28 11:26:37;;;;;;;19.23;11.60;;;0.50;99.90;;;;;;4975405;28;20441;-71
2021/12/28 11:29:08;;;;;;;14.57;10.77;;;0.60;99.90;;;;;;4975622;28;20393;-70
2021/12/28 11:31:44;;;;;;;13.60;10.30;;;0.50;99.90;;;;;;4988957;28;20508;-71
2021/12/28 11:34:27;;;;;;;13.90;10.23;;;0.60;99.90;;;;;;4976465;28;20455;-72
2021/12/28 11:37:04;;;;;;;18.30;10.63;;;0.60;99.90;;;;;;4975532;28;20452;-71
2021/12/28 11:39:35;;;;;;;20.13;11.40;;;0.60;99.90;;;;;;4975575;28;20571;-71
2021/12/28 11:42:02;;;;;;;11.60;8.83;;;0.70;99.90;;;;;;4975344;28;20425;-71
2021/12/28 11:44:29;;;;;;;14.53;9.93;;;0.70;99.90;;;;;;4975182;28;20457;-70
2021/12/28 11:46:57;;;;;;;16.60;9.97;;;0.60;99.90;;;;;;4969403;28;20529;-71
2021/12/28 11:49:27;;;;;;;25.63;11.03;;;0.70;99.90;;;;;;4955796;28;20413;-70
2021/12/28 11:51:53;;;;;;;14.13;11.80;;;0.70;99.90;;;;;;4955864;28;20424;-70
2021/12/28 11:54:21;;;;;;;31.57;10.80;;;0.80;99.90;;;;;;4955754;29;20406;-71
2021/12/28 11:56:57;;;;;;;27.93;10.37;;;0.80;99.90;;;;;;4965659;28;20470;-71
2021/12/28 11:59:25;;;;;;;18.70;8.70;;;0.80;99.90;;;;;;4975078;28;20460;-70
2021/12/28 12:01:51;;;;;;;17.90;10.47;;;0.90;99.90;;;;;;4975019;28;20417;-71
2021/12/28 12:04:34;;;;;;;18.33;9.10;;;0.90;99.90;;;;;;4975043;28;20452;-71
2021/12/28 12:07:00;;;;;;;18.17;11.97;;;0.90;99.90;;;;;;4973844;28;20262;-71
2021/12/28 12:09:26;;;;;;;19.20;11.10;;;0.90;99.90;;;;;;4974882;28;20450;-71
2021/12/28 12:12:17;;;;;;;20.50;9.53;;;0.90;99.90;;;;;;4975118;28;20541;-71
2021/12/28 12:15:00;;;;;;;15.83;11.87;;;1.00;99.90;;;;;;4974688;28;20452;-71
2021/12/28 12:17:28;;;;;;;11.57;10.27;;;1.00;99.90;;;;;;4974263;28;20460;-70
2021/12/28 12:20:15;;;;;;;8.83;7.93;;;1.00;99.90;;;;;;4974207;28;20542;-70
2021/12/28 12:22:50;;;;;;;18.70;10.40;;;1.10;99.90;;;;;;4974478;28;20397;-71
2021/12/28 12:25:42;;;;;;;29.60;13.07;;;1.10;99.90;;;;;;4974282;28;20914;-69
2021/12/28 12:28:09;;;;;;;16.27;9.60;;;1.20;99.90;;;;;;4969264;28;20442;-70
2021/12/28 12:30:34;;;;;;;12.17;8.70;;;1.20;99.90;;;;;;4971272;28;20476;-71
2021/12/28 12:33:09;;;;;;;22.07;9.93;;;1.20;99.90;;;;;;4955409;28;20485;-70
2021/12/28 12:35:41;;;;;;;13.40;8.60;;;1.30;99.90;;;;;;4976426;28;20177;-71
2021/12/28 12:38:09;;;;;;;24.37;10.33;;;1.30;99.90;;;;;;4974124;28;20408;-71
2021/12/28 12:41:01;;;;;;;16.00;9.67;;;1.30;99.90;;;;;;4960608;28;20461;-70
2021/12/28 12:43:38;;;;;;;35.17;11.10;;;1.30;99.90;;;;;;4955095;28;20772;-71